»·PEaware :: N78AB KJFK-KEWR

N78AB :: KJFK-KEWR

FLIGHT INFORMATION

Flight Status: Arrived
Operator: Privately registered:
United States
More flights under this callsign
Pilot: Joe C. (32102)
Aircraft: SOCATA TBM-900
(TBM9)
More flights by this aircraft type
Origin: KJFK Kennedy Intl
United States
Destination: KEWR Newark Intl
United States
More flights between these airports :: More routes between these airports
Route: JFK5 V16 DIXIE V276 RBV V249 SBJ
File this flight plan on PilotEdge
Remarks:
Altitude:
(Current/Filed)
6,000ft
Speed:
(Current/Filed)
240kts
Departed: 07-Dec-22 11:04 AM
Arrived: 07-Dec-22 12:11 PM
Distance/Time
Traveled:
18nm/1:07
Distance/Time
To Go:
Arrived

Flight Plot

Page will automatically refresh every two minutes.

Flight plan parsing failed; only flown route is shown


Map Options




Map Legend


Flown Route
Filed Route
Departure Airport
Arrival Airport
Navaid (VOR, NDB)
Fix

Horizontal Profiles

Position Reports

Time Latitude Longitude Heading Altitude Ground
Speed
07-Dec-22 10:29 40.649445 -73.809677 29 10ft 0kts
07-Dec-22 10:30 40.649445 -73.809677 29 10ft 0kts
07-Dec-22 10:31 40.649445 -73.809677 29 10ft 0kts
07-Dec-22 10:32 40.649445 -73.809677 29 10ft 0kts
07-Dec-22 10:33 40.649445 -73.809677 29 10ft 0kts
07-Dec-22 10:34 40.649445 -73.809677 29 10ft 0kts
07-Dec-22 10:35 40.649445 -73.809677 29 10ft 0kts
07-Dec-22 10:36 40.649445 -73.809677 29 10ft 0kts
07-Dec-22 10:37 40.649445 -73.809677 29 10ft 0kts
07-Dec-22 10:38 40.649445 -73.809677 29 10ft 0kts
07-Dec-22 10:39 40.649445 -73.809677 29 10ft 0kts
07-Dec-22 10:40 40.649445 -73.809677 29 10ft 0kts
07-Dec-22 10:41 40.649445 -73.809677 29 10ft 0kts
07-Dec-22 10:42 40.649445 -73.809677 29 10ft 0kts
07-Dec-22 10:43 40.649445 -73.809677 28 10ft 0kts
07-Dec-22 10:44 40.649445 -73.809677 28 10ft 0kts
07-Dec-22 10:45 40.649445 -73.809677 28 10ft 0kts
07-Dec-22 10:46 40.649445 -73.809677 28 10ft 0kts
07-Dec-22 10:47 40.649445 -73.809677 28 10ft 0kts
07-Dec-22 10:48 40.649445 -73.809677 28 10ft 0kts
07-Dec-22 10:49 40.649445 -73.809677 28 10ft 0kts
07-Dec-22 10:50 40.649445 -73.809677 28 10ft 0kts
07-Dec-22 10:51 40.649445 -73.809677 28 10ft 0kts
07-Dec-22 10:52 40.649445 -73.809677 28 10ft 0kts
07-Dec-22 10:53 40.649445 -73.809677 28 10ft 0kts
07-Dec-22 10:54 40.649445 -73.809677 28 10ft 0kts
07-Dec-22 10:55 40.649445 -73.809677 28 10ft 0kts
07-Dec-22 10:56 40.649546 -73.809701 310 10ft 0kts
07-Dec-22 10:57 40.649548 -73.809703 313 10ft 0kts
07-Dec-22 10:58 40.649504 -73.810985 299 10ft 8kts
07-Dec-22 10:59 40.649942 -73.814201 300 10ft 11kts
07-Dec-22 11:00 40.649659 -73.815479 212 10ft 4kts
07-Dec-22 11:01 40.649203 -73.815846 209 10ft 0kts
07-Dec-22 11:02 40.648389 -73.816477 185 7ft 14kts
07-Dec-22 11:03 40.644880 -73.809197 122 52ft 106kts
07-Dec-22 11:04 40.627023 -73.766394 111 1887ft 153kts
07-Dec-22 11:05 40.604406 -73.718045 170 3759ft 170kts
07-Dec-22 11:06 40.572594 -73.764460 246 5026ft 213kts
07-Dec-22 11:07 40.552322 -73.844809 277 4980ft 243kts
07-Dec-22 11:08 40.538489 -73.927589 215 4980ft 247kts
07-Dec-22 11:09 40.474877 -73.956923 168 4984ft 248kts
07-Dec-22 11:10 40.414745 -73.970521 206 6005ft 227kts
07-Dec-22 11:11 40.356877 -74.006432 207 5711ft 234kts
07-Dec-22 11:12 40.320850 -74.066844 261 5006ft 224kts
07-Dec-22 11:13 40.321608 -74.144822 296 4668ft 229kts
07-Dec-22 11:14 40.355786 -74.215452 297 3360ft 219kts
07-Dec-22 11:15 40.381664 -74.285292 294 2996ft 218kts
07-Dec-22 11:16 40.440722 -74.293883 9 3002ft 235kts
07-Dec-22 11:17 40.499498 -74.280789 9 2786ft 189kts
07-Dec-22 11:18 40.548568 -74.256066 26 2591ft 190kts
07-Dec-22 11:19 40.596402 -74.225725 26 1826ft 191kts
07-Dec-22 11:20 40.640167 -74.198009 27 912ft 142kts
07-Dec-22 11:21 40.668837 -74.180340 26 324ft 110kts
07-Dec-22 11:22 40.699787 -74.155879 47 1496ft 149kts
07-Dec-22 11:23 40.730559 -74.111995 47 2525ft 192kts
07-Dec-22 11:24 40.778109 -74.081158 347 3021ft 227kts
07-Dec-22 11:25 40.841617 -74.099648 347 3001ft 236kts
07-Dec-22 11:26 40.858906 -74.169182 257 3003ft 235kts
07-Dec-22 11:27 40.832271 -74.243530 207 3010ft 234kts
07-Dec-22 11:28 40.774151 -74.283703 207 3001ft 236kts
07-Dec-22 11:29 40.715830 -74.323927 207 3000ft 236kts
07-Dec-22 11:30 40.658264 -74.363605 207 2993ft 223kts
07-Dec-22 11:31 40.603574 -74.401118 204 2999ft 223kts
07-Dec-22 11:32 40.547939 -74.370294 147 3001ft 228kts
07-Dec-22 11:33 40.519468 -74.310991 58 3006ft 220kts
07-Dec-22 11:34 40.558005 -74.249909 21 2650ft 221kts
07-Dec-22 11:35 40.607653 -74.218592 26 1661ft 171kts
07-Dec-22 11:36 40.643026 -74.196174 27 841ft 117kts
07-Dec-22 11:37 40.668205 -74.180928 26 376ft 102kts
07-Dec-22 11:38 40.693680 -74.153025 47 2023ft 138kts
07-Dec-22 11:39 40.731141 -74.128576 347 3036ft 196kts
07-Dec-22 11:40 40.789594 -74.145305 347 3003ft 223kts
07-Dec-22 11:41 40.821801 -74.197485 257 3012ft 223kts
07-Dec-22 11:42 40.789229 -74.258565 207 3000ft 211kts
07-Dec-22 11:43 40.737308 -74.294354 207 3000ft 211kts
07-Dec-22 11:44 40.685085 -74.330358 207 3000ft 211kts
07-Dec-22 11:45 40.632943 -74.366323 207 3000ft 211kts
07-Dec-22 11:46 40.580776 -74.402323 207 3000ft 211kts
07-Dec-22 11:47 40.528643 -74.438260 207 2997ft 212kts
07-Dec-22 11:48 40.481060 -74.416324 127 3004ft 211kts
07-Dec-22 11:49 40.454884 -74.356330 77 2988ft 192kts
07-Dec-22 11:50 40.483115 -74.297317 42 2989ft 188kts
07-Dec-22 11:51 40.530447 -74.267469 24 3002ft 191kts
07-Dec-22 11:52 40.579112 -74.236692 25 2182ft 188kts
07-Dec-22 11:53 40.623245 -74.208712 27 1274ft 140kts
07-Dec-22 11:54 40.655494 -74.187876 31 601ft 124kts
07-Dec-22 11:55 40.686686 -74.168332 28 590ft 132kts
07-Dec-22 11:56 40.715355 -74.131565 47 2881ft 166kts
07-Dec-22 11:57 40.766440 -74.120283 347 3011ft 229kts
07-Dec-22 11:58 40.785159 -74.187331 256 3005ft 236kts
07-Dec-22 11:59 40.766631 -74.269545 221 2965ft 216kts
07-Dec-22 12:00 40.714306 -74.306701 207 3000ft 215kts
07-Dec-22 12:01 40.661065 -74.343399 207 3000ft 216kts
07-Dec-22 12:02 40.606531 -74.372900 164 2984ft 216kts
07-Dec-22 12:03 40.552823 -74.344272 157 2975ft 178kts
07-Dec-22 12:04 40.523047 -74.309261 70 2999ft 157kts
07-Dec-22 12:05 40.548871 -74.256260 38 2209ft 186kts
07-Dec-22 12:06 40.593871 -74.227352 26 1711ft 174kts
07-Dec-22 12:07 40.625423 -74.207333 28 1258ft 93kts
07-Dec-22 12:08 40.648352 -74.192604 27 778ft 92kts
07-Dec-22 12:09 40.671558 -74.178185 29 271ft 89kts
07-Dec-22 12:10 40.689035 -74.166955 24 10ft 29kts
07-Dec-22 12:11 40.693507 -74.166009 355 10ft 12kts
07-Dec-22 12:12 40.694790 -74.168362 295 10ft 0kts
07-Dec-22 12:13 40.694798 -74.168384 295 10ft 3kts
07-Dec-22 12:14 40.698818 -74.167679 5 10ft 16kts
07-Dec-22 12:15 40.702736 -74.167207 6 10ft 16kts
07-Dec-22 12:16 40.705484 -74.168959 320 10ft 9kts
07-Dec-22 12:17 40.705544 -74.169951 20 10ft 0kts
07-Dec-22 12:18 40.705544 -74.169951 20 10ft 0kts
07-Dec-22 12:19 40.705544 -74.169951 20 10ft 0kts
07-Dec-22 12:20 40.705544 -74.169951 20 10ft 0kts
07-Dec-22 12:21 40.705544 -74.169951 20 10ft 0kts
07-Dec-22 12:22 40.705544 -74.169951 20 10ft 0kts
07-Dec-22 12:24 40.705544 -74.169951 20 10ft 0kts
07-Dec-22 12:25 40.705544 -74.169951 20 10ft 0kts

Navigation Log

Ident Type
Flight plan parsing failed, navigation log unavailable